createdAt,value
2023-03-03T00:01:05.864Z,101696.03
2023-03-03T00:03:36.020Z,101701.38
2023-03-03T00:06:06.724Z,101695.47
2023-03-03T00:08:37.206Z,101690.38
2023-03-03T00:11:08.149Z,101689.63
2023-03-03T00:13:45.951Z,101678.19
2023-03-03T00:16:18.214Z,101683.31
2023-03-03T00:18:48.913Z,101685.03
2023-03-03T00:21:26.109Z,101671.25
2023-03-03T00:23:56.949Z,101665.16
2023-03-03T00:26:30.788Z,101665.97
2023-03-03T00:29:02.538Z,101660.66
2023-03-03T00:31:35.046Z,101652.72
2023-03-03T00:34:16.780Z,101664.19
2023-03-03T00:36:46.697Z,101647.00
2023-03-03T00:39:20.941Z,101635.44
2023-03-03T00:41:50.754Z,101631.13
2023-03-03T00:44:33.752Z,101617.75
2023-03-03T00:47:15.470Z,101631.94
2023-03-03T00:49:45.659Z,101635.63
2023-03-03T00:52:17.562Z,101635.38
2023-03-03T00:54:48.020Z,101627.72
2023-03-03T00:57:17.817Z,101634.03
2023-03-03T00:59:49.973Z,101640.13
2023-03-03T01:02:19.927Z,101633.16
2023-03-03T01:04:52.309Z,101639.25
2023-03-03T01:07:21.966Z,101635.53
2023-03-03T01:09:52.022Z,101632.84
2023-03-03T01:12:21.805Z,101626.31
2023-03-03T01:14:55.680Z,101620.19
2023-03-03T01:17:25.531Z,101620.41
2023-03-03T01:19:55.647Z,101613.50
2023-03-03T01:22:25.500Z,101609.69
2023-03-03T01:24:55.600Z,101605.38
2023-03-03T01:27:25.375Z,101610.75
2023-03-03T01:29:57.896Z,101614.19
2023-03-03T01:32:27.848Z,101616.63
2023-03-03T01:34:58.161Z,101606.25
2023-03-03T01:37:27.744Z,101602.56
2023-03-03T01:39:57.655Z,101600.25
2023-03-03T01:42:29.539Z,101608.81
2023-03-03T01:45:18.100Z,101612.47
2023-03-03T01:47:54.082Z,101603.75
2023-03-03T01:50:36.364Z,101601.00
2023-03-03T01:53:08.210Z,101605.25
2023-03-03T01:55:40.990Z,101607.84
2023-03-03T01:58:12.826Z,101607.78
2023-03-03T02:00:47.219Z,101600.34
2023-03-03T02:03:17.230Z,101588.78
2023-03-03T02:05:47.629Z,101590.50
2023-03-03T02:08:18.933Z,101593.09
2023-03-03T02:10:49.610Z,101585.00
2023-03-03T02:13:20.552Z,101580.75
2023-03-03T02:15:52.067Z,101579.38
2023-03-03T02:18:22.489Z,101583.69
2023-03-03T02:20:58.184Z,101579.59
2023-03-03T02:23:32.053Z,101569.25
2023-03-03T02:26:08.836Z,101566.63
2023-03-03T02:28:39.834Z,101568.09
2023-03-03T02:31:14.648Z,101557.84
2023-03-03T02:33:46.927Z,101560.78
2023-03-03T02:36:18.363Z,101568.81
2023-03-03T02:38:51.397Z,101561.13
2023-03-03T02:41:28.081Z,101553.47
2023-03-03T02:44:01.576Z,101558.47
2023-03-03T02:46:34.987Z,101561.69
2023-03-03T02:49:05.425Z,101559.97
2023-03-03T02:51:35.944Z,101561.97
2023-03-03T02:54:06.125Z,101569.91
2023-03-03T02:56:38.332Z,101560.31
2023-03-03T02:59:08.343Z,101567.44
2023-03-03T03:01:44.577Z,101563.91
2023-03-03T03:04:18.432Z,101562.16
2023-03-03T03:06:51.241Z,101552.63
2023-03-03T03:09:22.121Z,101559.75
2023-03-03T03:11:55.354Z,101552.00
2023-03-03T03:14:28.579Z,101565.06
2023-03-03T03:16:59.751Z,101568.69
2023-03-03T03:19:30.528Z,101557.56
2023-03-03T03:22:03.991Z,101545.47
2023-03-03T03:24:37.518Z,101548.06
2023-03-03T03:27:12.321Z,101550.84
2023-03-03T03:29:42.152Z,101552.53
2023-03-03T03:32:12.992Z,101507.75
2023-03-03T03:34:42.731Z,101560.81
2023-03-03T03:37:14.063Z,101561.16
2023-03-03T03:39:45.171Z,101573.41
2023-03-03T03:42:16.701Z,101568.09
2023-03-03T03:44:46.487Z,101558.81
2023-03-03T03:47:18.132Z,101561.81
2023-03-03T03:49:48.116Z,101543.16
2023-03-03T03:52:18.172Z,101552.91
2023-03-03T03:54:47.838Z,101554.00
2023-03-03T03:57:19.348Z,101557.59
2023-03-03T03:59:51.044Z,101554.09
2023-03-03T04:02:21.387Z,101557.56
2023-03-03T04:04:51.185Z,101553.53
2023-03-03T04:07:21.237Z,101555.25
2023-03-03T04:09:51.436Z,101558.06
2023-03-03T04:12:24.414Z,101550.34
2023-03-03T04:14:54.805Z,101558.06
2023-03-03T04:17:25.786Z,101538.97
2023-03-03T04:19:56.151Z,101545.97
2023-03-03T04:22:26.145Z,101559.91
2023-03-03T04:24:55.897Z,101559.22
2023-03-03T04:27:27.627Z,101549.72
2023-03-03T04:29:57.469Z,101545.53
2023-03-03T04:32:27.560Z,101543.91
2023-03-03T04:35:07.254Z,101555.19
2023-03-03T04:37:40.679Z,101556.28
2023-03-03T04:40:11.800Z,101541.63
2023-03-03T04:42:44.707Z,101519.06
2023-03-03T04:45:14.503Z,101527.75
2023-03-03T04:47:44.666Z,101511.53
2023-03-03T04:50:14.405Z,101492.53
2023-03-03T04:52:44.660Z,101483.72
2023-03-03T04:55:16.964Z,101485.66
2023-03-03T04:57:51.069Z,101490.16
2023-03-03T05:00:21.487Z,101484.16
2023-03-03T05:02:51.693Z,101490.34
2023-03-03T05:05:21.842Z,101487.91
2023-03-03T05:07:52.282Z,101474.13
2023-03-03T05:10:22.360Z,101471.63
2023-03-03T05:12:53.932Z,101477.28
2023-03-03T05:15:23.737Z,101485.22
2023-03-03T05:17:56.710Z,101487.78
2023-03-03T05:20:26.807Z,101492.16
2023-03-03T05:23:00.141Z,101485.38
2023-03-03T05:25:29.917Z,101498.69
2023-03-03T05:28:01.376Z,101491.69
2023-03-03T05:30:31.451Z,101498.69
2023-03-03T05:33:01.605Z,101498.69
2023-03-03T05:35:31.329Z,101506.63
2023-03-03T05:38:03.779Z,101498.88
2023-03-03T05:40:35.034Z,101495.38
2023-03-03T05:43:07.438Z,101498.09
2023-03-03T05:45:37.246Z,101502.72
2023-03-03T05:48:08.034Z,101509.00
2023-03-03T05:50:38.035Z,101510.03
2023-03-03T05:53:08.104Z,101514.41
2023-03-03T05:55:37.719Z,101504.94
2023-03-03T05:58:09.209Z,101501.44
2023-03-03T06:00:39.404Z,101521.59
2023-03-03T06:03:10.014Z,101510.22
2023-03-03T06:05:39.730Z,101514.75
2023-03-03T06:08:09.970Z,101513.00
2023-03-03T06:10:39.629Z,101517.41
2023-03-03T06:13:14.982Z,101519.25
2023-03-03T06:15:44.977Z,101520.38
2023-03-03T06:18:16.181Z,101522.94
2023-03-03T06:20:45.801Z,101524.72
2023-03-03T06:23:15.848Z,101520.38
2023-03-03T06:25:45.630Z,101510.09
2023-03-03T06:28:18.711Z,101522.38
2023-03-03T06:30:48.438Z,101516.25
2023-03-03T06:33:18.637Z,101515.47
2023-03-03T06:35:51.178Z,101527.81
2023-03-03T06:38:21.704Z,101516.53
2023-03-03T06:40:51.477Z,101521.03
2023-03-03T06:43:23.269Z,101528.00
2023-03-03T06:45:54.307Z,101526.53
2023-03-03T06:48:24.303Z,101518.06
2023-03-03T06:50:53.836Z,101521.66
2023-03-03T06:53:23.967Z,101519.19
2023-03-03T06:55:54.188Z,101521.16
2023-03-03T06:58:26.158Z,101520.47
2023-03-03T07:00:57.370Z,101521.53
2023-03-03T07:03:29.767Z,101527.84
2023-03-03T07:05:59.465Z,101457.81
2023-03-03T07:08:32.290Z,101526.59
2023-03-03T07:11:03.496Z,101526.81
2023-03-03T07:13:35.828Z,101541.69
2023-03-03T07:16:10.962Z,101539.38
2023-03-03T07:18:42.068Z,101537.94
2023-03-03T07:21:18.138Z,101539.84
2023-03-03T07:23:49.742Z,101543.50
2023-03-03T07:26:22.581Z,101554.25
2023-03-03T07:28:56.746Z,101547.16
2023-03-03T07:31:31.784Z,101539.25
2023-03-03T07:34:02.188Z,101541.47
2023-03-03T07:36:33.053Z,101538.72
2023-03-03T07:39:05.824Z,101535.03
2023-03-03T07:41:36.514Z,101540.59
2023-03-03T07:44:08.803Z,101538.88
2023-03-03T07:46:41.692Z,101537.75
2023-03-03T07:49:19.574Z,101533.31
2023-03-03T07:51:49.948Z,101522.34
2023-03-03T07:54:29.735Z,101527.72
2023-03-03T07:57:01.055Z,101532.16
2023-03-03T07:59:37.589Z,101532.91
2023-03-03T08:02:13.779Z,101527.66
2023-03-03T08:04:47.754Z,101536.66
2023-03-03T08:07:18.738Z,101529.13
2023-03-03T08:09:51.571Z,101523.66
2023-03-03T08:12:33.492Z,101525.56
2023-03-03T08:15:22.998Z,101528.06
2023-03-03T08:17:53.568Z,101515.13
2023-03-03T08:20:43.152Z,101501.84
2023-03-03T08:23:13.518Z,101495.94
2023-03-03T08:25:44.412Z,101508.47
2023-03-03T08:28:14.448Z,101503.59
2023-03-03T08:30:47.642Z,101512.22
2023-03-03T08:33:17.850Z,101506.38
2023-03-03T08:35:48.251Z,101505.72
2023-03-03T08:38:20.136Z,101511.16
2023-03-03T08:40:50.388Z,101506.78
2023-03-03T08:43:21.996Z,101505.34
2023-03-03T08:45:54.277Z,101507.47
2023-03-03T08:48:24.106Z,101504.72
2023-03-03T08:50:54.149Z,101506.03
2023-03-03T08:53:24.583Z,101509.66
2023-03-03T08:55:55.281Z,101507.63
2023-03-03T08:58:34.731Z,101517.69
2023-03-03T09:01:07.519Z,101513.94
2023-03-03T09:03:38.154Z,101514.34
2023-03-03T09:06:08.288Z,101514.53
2023-03-03T09:08:38.842Z,101521.44
2023-03-03T09:11:11.629Z,101521.41
2023-03-03T09:13:41.467Z,101521.25
2023-03-03T09:16:15.945Z,101517.63
2023-03-03T09:18:45.858Z,101509.81
2023-03-03T09:21:24.128Z,101511.97
2023-03-03T09:23:55.938Z,101505.22
2023-03-03T09:26:28.647Z,101501.91
2023-03-03T09:29:00.918Z,101503.28
2023-03-03T09:31:38.994Z,101507.06
2023-03-03T09:34:18.447Z,101504.97
2023-03-03T09:36:49.748Z,101506.00
2023-03-03T09:39:20.775Z,101511.25
2023-03-03T09:42:09.326Z,101506.03
2023-03-03T09:45:02.110Z,101511.97
2023-03-03T09:47:46.636Z,101492.47
2023-03-03T09:50:26.285Z,101499.81
2023-03-03T09:53:02.009Z,101494.25
2023-03-03T09:55:46.032Z,101496.06
2023-03-03T09:58:24.971Z,101500.91
2023-03-03T10:00:59.935Z,101499.47
2023-03-03T10:03:46.727Z,101483.34
2023-03-03T10:06:26.016Z,101486.09
2023-03-03T10:09:12.274Z,101482.47
2023-03-03T10:11:47.755Z,101485.09
2023-03-03T10:14:33.001Z,101479.88
2023-03-03T10:17:09.587Z,101477.53
2023-03-03T10:19:42.316Z,101479.34
2023-03-03T10:22:20.876Z,101479.91
2023-03-03T10:24:58.875Z,101476.00
2023-03-03T10:27:39.176Z,101478.63
2023-03-03T10:30:15.205Z,101478.03
2023-03-03T10:32:50.087Z,101483.63
2023-03-03T10:35:39.899Z,101483.16
2023-03-03T10:38:16.054Z,101477.28
2023-03-03T10:40:49.885Z,101467.84
2023-03-03T10:43:47.219Z,101471.44
2023-03-03T10:46:36.997Z,101481.59
2023-03-03T10:49:20.185Z,101484.06
2023-03-03T10:52:01.034Z,101482.88
2023-03-03T10:54:39.484Z,101479.53
2023-03-03T10:57:14.811Z,101485.66
2023-03-03T10:59:56.571Z,101472.22
2023-03-03T11:02:29.247Z,101464.84
2023-03-03T11:05:24.868Z,101476.88
2023-03-03T11:08:03.272Z,101478.19
2023-03-03T11:10:44.618Z,101479.78
2023-03-03T11:13:17.998Z,101464.94
2023-03-03T11:15:55.578Z,101466.25
2023-03-03T11:18:31.077Z,101471.16
2023-03-03T11:21:04.799Z,101469.63
2023-03-03T11:23:48.398Z,101474.91
2023-03-03T11:26:24.228Z,101457.56
2023-03-03T11:29:01.821Z,101455.19
2023-03-03T11:31:38.406Z,101454.41
2023-03-03T11:34:13.821Z,101455.06
2023-03-03T11:36:46.083Z,101454.25
2023-03-03T11:39:19.049Z,101452.81
2023-03-03T11:42:02.066Z,101440.47
2023-03-03T11:44:36.340Z,101450.22
2023-03-03T11:47:07.807Z,101441.56
2023-03-03T11:49:40.783Z,101433.91
2023-03-03T11:52:18.992Z,101428.88
2023-03-03T11:54:53.914Z,101420.84
2023-03-03T11:57:25.594Z,101413.91
2023-03-03T12:00:00.314Z,101407.84
2023-03-03T12:02:36.599Z,101389.75
2023-03-03T12:05:10.527Z,101386.38
2023-03-03T12:07:44.349Z,101395.09
2023-03-03T12:10:25.956Z,101379.22
2023-03-03T12:13:02.295Z,101382.78
2023-03-03T12:15:35.633Z,101374.16
2023-03-03T12:18:12.736Z,101383.97
2023-03-03T12:20:51.102Z,101382.16
2023-03-03T12:23:30.308Z,101378.69
2023-03-03T12:26:04.097Z,101363.03
2023-03-03T12:28:37.869Z,101376.94
2023-03-03T12:31:24.115Z,101369.16
2023-03-03T12:33:57.075Z,101352.41
2023-03-03T12:36:35.986Z,101354.34
2023-03-03T12:39:08.379Z,101346.53
2023-03-03T12:41:47.193Z,101339.44
2023-03-03T12:44:20.562Z,101343.81
2023-03-03T12:46:57.962Z,101344.88
2023-03-03T12:49:42.567Z,101346.75
2023-03-03T12:52:21.853Z,101340.66
2023-03-03T12:55:03.242Z,101344.34
2023-03-03T12:57:40.537Z,101345.50
2023-03-03T13:00:31.584Z,101331.59
2023-03-03T13:03:10.811Z,101335.94
2023-03-03T13:05:52.431Z,101335.81
2023-03-03T13:08:43.280Z,101324.19
2023-03-03T13:11:21.795Z,101317.78
2023-03-03T13:13:55.381Z,101311.56
2023-03-03T13:16:40.713Z,101303.69
2023-03-03T13:19:14.122Z,101308.81
2023-03-03T13:21:47.561Z,101315.09
2023-03-03T13:24:19.939Z,101297.41
2023-03-03T13:26:51.662Z,101310.69
2023-03-03T13:29:27.051Z,101293.75
2023-03-03T13:31:58.453Z,101287.63
2023-03-03T13:34:43.016Z,101289.44
2023-03-03T13:37:16.103Z,101288.56
2023-03-03T13:39:51.378Z,101288.50
2023-03-03T13:42:26.619Z,101292.97
2023-03-03T13:44:58.786Z,101291.19
2023-03-03T13:47:34.621Z,101289.53
2023-03-03T13:50:17.852Z,101288.56
2023-03-03T13:52:53.997Z,101291.97
2023-03-03T13:55:30.350Z,101291.94
2023-03-03T13:58:02.295Z,101292.88
2023-03-03T14:00:38.592Z,101284.81
2023-03-03T14:03:18.867Z,101286.66
2023-03-03T14:05:50.749Z,101279.69
2023-03-03T14:08:28.190Z,101272.66
2023-03-03T14:11:07.698Z,101272.69
2023-03-03T14:13:41.079Z,101276.13
2023-03-03T14:16:19.252Z,101264.63
2023-03-03T14:18:56.247Z,101257.44
2023-03-03T14:21:29.923Z,101260.78
2023-03-03T14:24:06.131Z,101250.22
2023-03-03T14:26:46.843Z,101248.38
2023-03-03T14:29:21.957Z,101260.66
2023-03-03T14:31:53.857Z,101249.22
2023-03-03T14:34:37.782Z,101257.88
2023-03-03T14:37:22.767Z,101252.59
2023-03-03T14:40:02.393Z,101252.53
2023-03-03T14:42:34.241Z,101236.56
2023-03-03T14:45:29.206Z,101241.78
2023-03-03T14:48:07.725Z,101243.47
2023-03-03T14:50:38.384Z,101236.38
2023-03-03T14:53:17.215Z,101233.59
2023-03-03T14:55:48.329Z,101227.38
2023-03-03T14:58:29.130Z,101224.72
2023-03-03T15:01:10.131Z,101226.56
2023-03-03T15:03:46.495Z,101220.19
2023-03-03T15:06:29.915Z,101220.16
2023-03-03T15:09:20.154Z,101214.81
2023-03-03T15:11:52.746Z,101207.72
2023-03-03T15:14:31.565Z,101212.09
2023-03-03T15:17:17.914Z,101212.88
2023-03-03T15:19:55.813Z,101211.84
2023-03-03T15:22:38.469Z,101210.88
2023-03-03T15:25:13.940Z,101209.91
2023-03-03T15:27:46.113Z,101202.81
2023-03-03T15:30:23.704Z,101199.22
2023-03-03T15:32:59.526Z,101196.47
2023-03-03T15:35:37.887Z,101197.25
2023-03-03T15:38:14.247Z,101190.13
2023-03-03T15:40:48.853Z,101185.56
2023-03-03T15:43:23.757Z,101187.28
2023-03-03T15:45:59.476Z,101181.03
2023-03-03T15:48:47.317Z,101175.59
2023-03-03T15:51:24.572Z,101171.19
2023-03-03T15:54:08.862Z,101179.75
2023-03-03T15:56:43.421Z,101179.78
2023-03-03T15:59:32.381Z,101169.25
2023-03-03T16:02:08.032Z,101175.34
2023-03-03T16:04:41.328Z,101170.00
2023-03-03T16:07:19.150Z,101177.00
2023-03-03T16:09:56.751Z,101167.16
2023-03-03T16:12:32.945Z,101157.31
2023-03-03T16:15:14.294Z,101146.75
2023-03-03T16:17:50.566Z,101152.00
2023-03-03T16:20:23.385Z,101145.81
2023-03-03T16:23:19.481Z,101135.19
2023-03-03T16:26:06.184Z,101145.63
2023-03-03T16:28:40.852Z,101137.66
2023-03-03T16:31:13.449Z,101145.53
2023-03-03T16:33:46.139Z,101134.13
2023-03-03T16:36:24.837Z,101135.06
2023-03-03T16:39:02.436Z,101126.16
2023-03-03T16:41:39.787Z,101127.00
2023-03-03T16:44:15.797Z,101113.84
2023-03-03T16:46:48.027Z,101119.88
2023-03-03T16:49:22.481Z,101105.81
2023-03-03T16:51:56.357Z,101091.75
2023-03-03T16:54:34.881Z,101097.75
2023-03-03T16:57:11.300Z,101090.66
2023-03-03T16:59:47.115Z,101088.97
2023-03-03T17:02:29.107Z,101089.66
2023-03-03T17:05:05.297Z,101092.22
2023-03-03T17:07:40.506Z,101094.75
2023-03-03T17:10:27.053Z,101096.41
2023-03-03T17:13:07.969Z,101092.84
2023-03-03T17:15:45.002Z,101089.28
2023-03-03T17:18:16.317Z,101086.72
2023-03-03T17:20:50.201Z,101090.00
2023-03-03T17:23:31.489Z,101086.66
2023-03-03T17:26:09.488Z,101091.59
2023-03-03T17:28:48.429Z,101096.84
2023-03-03T17:31:23.333Z,101079.41
2023-03-03T17:34:20.220Z,101082.75
2023-03-03T17:37:05.461Z,101081.69
2023-03-03T17:39:50.312Z,101076.41
2023-03-03T17:42:24.761Z,101078.88
2023-03-03T17:45:00.740Z,101078.94
2023-03-03T17:47:39.127Z,101071.84
2023-03-03T17:50:12.992Z,101074.59
2023-03-03T17:52:51.903Z,101069.94
2023-03-03T17:55:28.894Z,101071.59
2023-03-03T18:01:05.385Z,101068.97
2023-03-03T18:03:41.689Z,101060.06
2023-03-03T18:06:24.512Z,101078.56
2023-03-03T18:09:13.792Z,101065.41
2023-03-03T18:12:01.484Z,101066.09
2023-03-03T18:14:49.398Z,101065.16
2023-03-03T18:17:32.658Z,101065.94
2023-03-03T18:20:20.724Z,101060.69
2023-03-03T18:22:51.130Z,101048.41
2023-03-03T18:25:23.000Z,101044.81
2023-03-03T18:28:07.378Z,101030.84
2023-03-03T18:30:52.213Z,101036.06
2023-03-03T18:33:36.941Z,101034.28
2023-03-03T18:36:15.898Z,101038.69
2023-03-03T18:38:48.611Z,101036.88
2023-03-03T18:41:23.836Z,101025.44
2023-03-03T18:44:05.116Z,101030.59
2023-03-03T18:46:51.681Z,101015.69
2023-03-03T18:49:47.605Z,101020.88
2023-03-03T18:52:24.490Z,101021.66
2023-03-03T18:55:07.043Z,101014.59
2023-03-03T18:57:37.521Z,101010.22
2023-03-03T19:00:16.336Z,101013.63
2023-03-03T19:02:54.140Z,101008.31
2023-03-03T19:05:25.639Z,100997.72
2023-03-03T19:08:01.938Z,100991.66
2023-03-03T19:10:52.042Z,100989.72
2023-03-03T19:13:43.378Z,100992.47
2023-03-03T19:16:31.566Z,100983.50
2023-03-03T19:19:05.342Z,100965.16
2023-03-03T19:21:36.446Z,100962.34
2023-03-03T19:24:27.201Z,100947.25
2023-03-03T19:27:12.627Z,100956.69
2023-03-03T19:29:56.173Z,100969.81
2023-03-03T19:32:37.574Z,100977.78
2023-03-03T19:35:21.101Z,100968.00
2023-03-03T19:38:00.550Z,100966.16
2023-03-03T19:40:37.631Z,100974.81
2023-03-03T19:43:16.434Z,100972.94
2023-03-03T19:45:54.779Z,100971.25
2023-03-03T19:48:32.054Z,100956.34
2023-03-03T19:51:06.857Z,100960.09
2023-03-03T19:53:41.427Z,100956.66
2023-03-03T19:56:19.167Z,100960.31
2023-03-03T19:59:18.035Z,100963.88
2023-03-03T20:01:56.361Z,100950.66
2023-03-03T20:04:36.411Z,100963.19
2023-03-03T20:07:16.984Z,100960.50
2023-03-03T20:09:54.301Z,100958.00
2023-03-03T20:12:36.817Z,100952.75
2023-03-03T20:15:17.105Z,100945.66
2023-03-03T20:17:57.418Z,100943.94
2023-03-03T20:20:38.756Z,100953.63
2023-03-03T20:23:16.892Z,100944.75
2023-03-03T20:25:48.057Z,100941.56
2023-03-03T20:28:33.462Z,100943.09
2023-03-03T20:31:09.571Z,100938.78
2023-03-03T20:33:49.393Z,100938.75
2023-03-03T20:36:27.370Z,100939.63
2023-03-03T20:39:04.964Z,100935.31
2023-03-03T20:41:53.018Z,100928.28
2023-03-03T20:44:31.951Z,100922.16
2023-03-03T20:47:09.228Z,100914.56
2023-03-03T20:49:57.542Z,100932.94
2023-03-03T20:52:40.101Z,100925.84
2023-03-03T20:55:16.563Z,100917.94
2023-03-03T20:57:51.184Z,100920.53
2023-03-03T21:00:27.403Z,100916.94
2023-03-03T21:03:09.391Z,100913.75
2023-03-03T21:05:59.183Z,100916.47
2023-03-03T21:08:47.010Z,100905.84
2023-03-03T21:11:18.654Z,100914.66
2023-03-03T21:13:49.212Z,100910.22
2023-03-03T21:16:32.115Z,100914.78
2023-03-03T21:19:05.304Z,100893.81
2023-03-03T21:21:37.689Z,100880.72
2023-03-03T21:24:10.111Z,100867.59
2023-03-03T21:26:52.525Z,100846.53
2023-03-03T21:29:24.985Z,100842.28
2023-03-03T21:31:58.220Z,100822.91
2023-03-03T21:34:32.197Z,100834.28
2023-03-03T21:37:04.411Z,100838.56
2023-03-03T21:39:38.685Z,100822.69
2023-03-03T21:42:12.563Z,100811.28
2023-03-03T21:44:45.026Z,100809.59
2023-03-03T21:47:17.008Z,100805.16
2023-03-03T21:49:52.180Z,100806.25
2023-03-03T21:52:24.832Z,100796.69
2023-03-03T21:54:58.328Z,100786.09
2023-03-03T21:57:29.240Z,100786.75
2023-03-03T22:00:01.362Z,100779.03
2023-03-03T22:02:32.998Z,100772.19
2023-03-03T22:05:08.346Z,100756.16
2023-03-03T22:07:39.780Z,100758.00
2023-03-03T22:10:12.790Z,100774.59
2023-03-03T22:12:46.027Z,100766.91
2023-03-03T22:15:18.855Z,100760.88
2023-03-03T22:17:51.253Z,100759.19
2023-03-03T22:20:24.468Z,100758.31
2023-03-03T22:22:54.283Z,100763.63
2023-03-03T22:25:25.531Z,100759.47
2023-03-03T22:27:58.827Z,100762.00
2023-03-03T22:30:29.603Z,100744.66
2023-03-03T22:32:59.720Z,100750.88
2023-03-03T22:35:31.738Z,100743.88
2023-03-03T22:38:02.658Z,100737.78
2023-03-03T22:40:34.144Z,100742.22
2023-03-03T22:43:06.834Z,100745.72
2023-03-03T22:45:37.323Z,100736.97
2023-03-03T22:48:07.415Z,100735.34
2023-03-03T22:50:40.693Z,100725.72
2023-03-03T22:53:10.939Z,100715.22
2023-03-03T22:55:41.306Z,100713.44
2023-03-03T22:58:11.568Z,100713.41
2023-03-03T23:00:43.155Z,100714.34
2023-03-03T23:03:13.392Z,100698.53
2023-03-03T23:05:45.771Z,100704.75
2023-03-03T23:08:16.570Z,100710.00
2023-03-03T23:10:47.728Z,100703.03
2023-03-03T23:13:20.074Z,100703.91
2023-03-03T23:15:50.733Z,100692.53
2023-03-03T23:18:21.057Z,100675.91
2023-03-03T23:20:52.797Z,100690.00
2023-03-03T23:23:23.686Z,100676.00
2023-03-03T23:25:56.448Z,100684.75
2023-03-03T23:28:26.638Z,100683.88
2023-03-03T23:30:56.779Z,100676.09
2023-03-03T23:33:26.580Z,100664.66
2023-03-03T23:35:58.509Z,100652.41
2023-03-03T23:38:28.162Z,100655.13
2023-03-03T23:40:58.200Z,100647.25
2023-03-03T23:43:28.093Z,100636.72
2023-03-03T23:45:58.051Z,100632.38
2023-03-03T23:48:27.812Z,100636.81
2023-03-03T23:50:59.332Z,100638.59
2023-03-03T23:53:29.044Z,100636.88
2023-03-03T23:56:00.122Z,100638.56
2023-03-03T23:58:30.330Z,100629.13
